sensor_id;sensor_type;location;lat;lon;timestamp;P1;durP1;ratioP1;P2;durP2;ratioP2
31442;SDS011;18065;55.876;9.830;2024-02-26T00:00:27;4.22;;;0.80;;
31442;SDS011;18065;55.876;9.830;2024-02-26T00:02:56;1.58;;;0.85;;
31442;SDS011;18065;55.876;9.830;2024-02-26T00:05:27;2.30;;;0.85;;
31442;SDS011;18065;55.876;9.830;2024-02-26T00:07:56;3.08;;;0.93;;
31442;SDS011;18065;55.876;9.830;2024-02-26T00:10:25;1.65;;;0.80;;
31442;SDS011;18065;55.876;9.830;2024-02-26T00:12:54;1.38;;;0.77;;
31442;SDS011;18065;55.876;9.830;2024-02-26T00:15:23;2.53;;;0.93;;
31442;SDS011;18065;55.876;9.830;2024-02-26T00:17:53;1.02;;;0.68;;
31442;SDS011;18065;55.876;9.830;2024-02-26T00:20:21;2.65;;;0.88;;
31442;SDS011;18065;55.876;9.830;2024-02-26T00:22:53;1.85;;;0.70;;
31442;SDS011;18065;55.876;9.830;2024-02-26T00:25:22;2.53;;;0.88;;
31442;SDS011;18065;55.876;9.830;2024-02-26T00:27:51;2.30;;;0.85;;
31442;SDS011;18065;55.876;9.830;2024-02-26T00:30:20;3.33;;;1.10;;
31442;SDS011;18065;55.876;9.830;2024-02-26T00:32:48;1.42;;;0.80;;
31442;SDS011;18065;55.876;9.830;2024-02-26T00:35:17;2.10;;;0.90;;
31442;SDS011;18065;55.876;9.830;2024-02-26T00:37:47;1.25;;;0.70;;
31442;SDS011;18065;55.876;9.830;2024-02-26T00:40:18;2.67;;;1.05;;
31442;SDS011;18065;55.876;9.830;2024-02-26T00:42:47;1.48;;;0.90;;
31442;SDS011;18065;55.876;9.830;2024-02-26T00:45:16;1.63;;;1.10;;
31442;SDS011;18065;55.876;9.830;2024-02-26T00:47:45;3.78;;;1.10;;
31442;SDS011;18065;55.876;9.830;2024-02-26T00:50:14;1.23;;;0.80;;
31442;SDS011;18065;55.876;9.830;2024-02-26T00:52:43;1.58;;;0.73;;
31442;SDS011;18065;55.876;9.830;2024-02-26T00:55:12;3.38;;;0.90;;
31442;SDS011;18065;55.876;9.830;2024-02-26T00:57:44;2.22;;;0.75;;
31442;SDS011;18065;55.876;9.830;2024-02-26T01:00:13;2.38;;;0.75;;
31442;SDS011;18065;55.876;9.830;2024-02-26T01:02:43;2.90;;;0.63;;
31442;SDS011;18065;55.876;9.830;2024-02-26T01:05:12;0.90;;;0.70;;
31442;SDS011;18065;55.876;9.830;2024-02-26T01:07:42;2.88;;;0.73;;
31442;SDS011;18065;55.876;9.830;2024-02-26T01:10:11;2.72;;;0.90;;
31442;SDS011;18065;55.876;9.830;2024-02-26T01:12:40;1.35;;;0.68;;
31442;SDS011;18065;55.876;9.830;2024-02-26T01:15:11;3.92;;;0.90;;
31442;SDS011;18065;55.876;9.830;2024-02-26T01:17:40;1.60;;;1.00;;
31442;SDS011;18065;55.876;9.830;2024-02-26T01:20:10;3.22;;;0.90;;
31442;SDS011;18065;55.876;9.830;2024-02-26T01:22:39;2.63;;;0.80;;
31442;SDS011;18065;55.876;9.830;2024-02-26T01:25:08;1.25;;;0.88;;
31442;SDS011;18065;55.876;9.830;2024-02-26T01:27:37;2.55;;;0.90;;
31442;SDS011;18065;55.876;9.830;2024-02-26T01:30:11;3.00;;;1.17;;
31442;SDS011;18065;55.876;9.830;2024-02-26T01:32:41;2.80;;;0.85;;
31442;SDS011;18065;55.876;9.830;2024-02-26T01:35:10;2.75;;;1.00;;
31442;SDS011;18065;55.876;9.830;2024-02-26T01:37:39;1.48;;;0.90;;
31442;SDS011;18065;55.876;9.830;2024-02-26T01:40:08;1.13;;;0.93;;
31442;SDS011;18065;55.876;9.830;2024-02-26T01:42:44;2.58;;;1.00;;
31442;SDS011;18065;55.876;9.830;2024-02-26T01:45:16;2.13;;;0.82;;
31442;SDS011;18065;55.876;9.830;2024-02-26T01:47:47;2.00;;;0.70;;
31442;SDS011;18065;55.876;9.830;2024-02-26T01:50:18;4.28;;;0.98;;
31442;SDS011;18065;55.876;9.830;2024-02-26T01:52:48;2.08;;;0.63;;
31442;SDS011;18065;55.876;9.830;2024-02-26T01:55:18;1.58;;;0.73;;
31442;SDS011;18065;55.876;9.830;2024-02-26T01:57:48;0.70;;;0.60;;
31442;SDS011;18065;55.876;9.830;2024-02-26T02:00:20;4.53;;;0.70;;
31442;SDS011;18065;55.876;9.830;2024-02-26T02:02:50;1.35;;;0.80;;
31442;SDS011;18065;55.876;9.830;2024-02-26T02:05:20;2.40;;;0.93;;
31442;SDS011;18065;55.876;9.830;2024-02-26T02:07:49;2.58;;;0.75;;
31442;SDS011;18065;55.876;9.830;2024-02-26T02:10:19;1.67;;;0.98;;
31442;SDS011;18065;55.876;9.830;2024-02-26T02:12:50;1.70;;;0.73;;
31442;SDS011;18065;55.876;9.830;2024-02-26T02:15:22;1.25;;;0.73;;
31442;SDS011;18065;55.876;9.830;2024-02-26T02:17:51;1.83;;;0.85;;
31442;SDS011;18065;55.876;9.830;2024-02-26T02:20:26;2.13;;;0.90;;
31442;SDS011;18065;55.876;9.830;2024-02-26T02:23:00;2.35;;;0.70;;
31442;SDS011;18065;55.876;9.830;2024-02-26T02:25:28;1.77;;;0.90;;
31442;SDS011;18065;55.876;9.830;2024-02-26T02:27:57;2.17;;;0.88;;
31442;SDS011;18065;55.876;9.830;2024-02-26T02:30:27;4.00;;;0.80;;
31442;SDS011;18065;55.876;9.830;2024-02-26T02:32:58;2.50;;;0.85;;
31442;SDS011;18065;55.876;9.830;2024-02-26T02:35:30;4.97;;;0.85;;
31442;SDS011;18065;55.876;9.830;2024-02-26T02:37:58;1.65;;;1.17;;
31442;SDS011;18065;55.876;9.830;2024-02-26T02:40:27;1.80;;;0.98;;
31442;SDS011;18065;55.876;9.830;2024-02-26T02:42:56;2.42;;;0.90;;
31442;SDS011;18065;55.876;9.830;2024-02-26T02:45:25;2.78;;;1.05;;
31442;SDS011;18065;55.876;9.830;2024-02-26T02:47:54;1.67;;;1.08;;
31442;SDS011;18065;55.876;9.830;2024-02-26T02:50:23;2.60;;;1.10;;
31442;SDS011;18065;55.876;9.830;2024-02-26T02:52:54;4.45;;;1.20;;
31442;SDS011;18065;55.876;9.830;2024-02-26T02:55:23;4.30;;;1.27;;
31442;SDS011;18065;55.876;9.830;2024-02-26T02:57:52;1.23;;;0.93;;
31442;SDS011;18065;55.876;9.830;2024-02-26T03:00:20;2.22;;;1.00;;
31442;SDS011;18065;55.876;9.830;2024-02-26T03:02:49;4.80;;;1.20;;
31442;SDS011;18065;55.876;9.830;2024-02-26T03:05:18;2.80;;;1.08;;
31442;SDS011;18065;55.876;9.830;2024-02-26T03:07:47;2.00;;;1.10;;
31442;SDS011;18065;55.876;9.830;2024-02-26T03:10:19;1.92;;;1.10;;
31442;SDS011;18065;55.876;9.830;2024-02-26T03:12:47;2.00;;;1.33;;
31442;SDS011;18065;55.876;9.830;2024-02-26T03:15:16;2.17;;;1.23;;
31442;SDS011;18065;55.876;9.830;2024-02-26T03:17:45;3.70;;;1.27;;
31442;SDS011;18065;55.876;9.830;2024-02-26T03:20:14;2.60;;;1.10;;
31442;SDS011;18065;55.876;9.830;2024-02-26T03:22:44;1.75;;;1.13;;
31442;SDS011;18065;55.876;9.830;2024-02-26T03:25:13;4.93;;;1.25;;
31442;SDS011;18065;55.876;9.830;2024-02-26T03:27:45;2.58;;;1.20;;
31442;SDS011;18065;55.876;9.830;2024-02-26T03:30:14;1.65;;;1.20;;
31442;SDS011;18065;55.876;9.830;2024-02-26T03:32:43;2.70;;;1.17;;
31442;SDS011;18065;55.876;9.830;2024-02-26T03:35:13;1.95;;;1.20;;
31442;SDS011;18065;55.876;9.830;2024-02-26T03:37:42;3.05;;;1.48;;
31442;SDS011;18065;55.876;9.830;2024-02-26T03:40:11;3.50;;;1.40;;
31442;SDS011;18065;55.876;9.830;2024-02-26T03:42:41;1.58;;;1.25;;
31442;SDS011;18065;55.876;9.830;2024-02-26T03:45:13;1.45;;;1.25;;
31442;SDS011;18065;55.876;9.830;2024-02-26T03:47:42;3.05;;;1.60;;
31442;SDS011;18065;55.876;9.830;2024-02-26T03:50:10;1.40;;;1.05;;
31442;SDS011;18065;55.876;9.830;2024-02-26T03:52:39;2.03;;;1.40;;
31442;SDS011;18065;55.876;9.830;2024-02-26T03:55:08;2.40;;;1.40;;
31442;SDS011;18065;55.876;9.830;2024-02-26T03:57:37;4.18;;;1.30;;
31442;SDS011;18065;55.876;9.830;2024-02-26T04:00:07;2.67;;;1.20;;
31442;SDS011;18065;55.876;9.830;2024-02-26T04:02:39;1.73;;;1.25;;
31442;SDS011;18065;55.876;9.830;2024-02-26T04:05:09;2.10;;;1.20;;
31442;SDS011;18065;55.876;9.830;2024-02-26T04:07:38;3.15;;;1.40;;
31442;SDS011;18065;55.876;9.830;2024-02-26T04:10:10;2.40;;;1.35;;
31442;SDS011;18065;55.876;9.830;2024-02-26T04:12:39;1.17;;;1.02;;
31442;SDS011;18065;55.876;9.830;2024-02-26T04:15:09;3.15;;;1.10;;
31442;SDS011;18065;55.876;9.830;2024-02-26T04:17:41;1.42;;;1.02;;
31442;SDS011;18065;55.876;9.830;2024-02-26T04:20:13;2.67;;;1.30;;
31442;SDS011;18065;55.876;9.830;2024-02-26T04:22:42;2.22;;;1.15;;
31442;SDS011;18065;55.876;9.830;2024-02-26T04:25:11;1.88;;;1.40;;
31442;SDS011;18065;55.876;9.830;2024-02-26T04:27:40;1.63;;;1.30;;
31442;SDS011;18065;55.876;9.830;2024-02-26T04:30:10;3.50;;;1.48;;
31442;SDS011;18065;55.876;9.830;2024-02-26T04:32:42;2.83;;;1.30;;
31442;SDS011;18065;55.876;9.830;2024-02-26T04:35:11;2.30;;;1.27;;
31442;SDS011;18065;55.876;9.830;2024-02-26T04:37:40;1.67;;;1.40;;
31442;SDS011;18065;55.876;9.830;2024-02-26T04:40:09;1.83;;;1.40;;
31442;SDS011;18065;55.876;9.830;2024-02-26T04:42:38;1.45;;;1.27;;
31442;SDS011;18065;55.876;9.830;2024-02-26T04:45:07;1.73;;;1.30;;
31442;SDS011;18065;55.876;9.830;2024-02-26T04:47:37;4.03;;;1.13;;
31442;SDS011;18065;55.876;9.830;2024-02-26T04:50:08;3.05;;;1.25;;
31442;SDS011;18065;55.876;9.830;2024-02-26T04:52:37;1.50;;;1.10;;
31442;SDS011;18065;55.876;9.830;2024-02-26T04:55:07;1.65;;;1.20;;
31442;SDS011;18065;55.876;9.830;2024-02-26T04:57:36;2.58;;;1.30;;
31442;SDS011;18065;55.876;9.830;2024-02-26T05:00:05;2.72;;;1.40;;
31442;SDS011;18065;55.876;9.830;2024-02-26T05:02:35;1.98;;;1.20;;
31442;SDS011;18065;55.876;9.830;2024-02-26T05:05:04;1.60;;;1.13;;
31442;SDS011;18065;55.876;9.830;2024-02-26T05:07:36;2.70;;;1.13;;
31442;SDS011;18065;55.876;9.830;2024-02-26T05:10:08;1.50;;;1.25;;
31442;SDS011;18065;55.876;9.830;2024-02-26T05:12:37;2.33;;;1.30;;
31442;SDS011;18065;55.876;9.830;2024-02-26T05:15:08;2.15;;;1.20;;
31442;SDS011;18065;55.876;9.830;2024-02-26T05:17:43;2.20;;;1.10;;
31442;SDS011;18065;55.876;9.830;2024-02-26T05:20:12;1.40;;;1.10;;
31442;SDS011;18065;55.876;9.830;2024-02-26T05:22:43;2.90;;;0.93;;
31442;SDS011;18065;55.876;9.830;2024-02-26T05:25:14;4.57;;;1.27;;
31442;SDS011;18065;55.876;9.830;2024-02-26T05:27:43;2.75;;;1.20;;
31442;SDS011;18065;55.876;9.830;2024-02-26T05:30:12;1.85;;;1.27;;
31442;SDS011;18065;55.876;9.830;2024-02-26T05:32:42;2.22;;;1.25;;
31442;SDS011;18065;55.876;9.830;2024-02-26T05:35:11;1.38;;;1.13;;
31442;SDS011;18065;55.876;9.830;2024-02-26T05:37:40;1.80;;;1.23;;
31442;SDS011;18065;55.876;9.830;2024-02-26T05:40:12;1.38;;;1.20;;
31442;SDS011;18065;55.876;9.830;2024-02-26T05:42:41;2.83;;;1.25;;
31442;SDS011;18065;55.876;9.830;2024-02-26T05:45:10;1.45;;;1.15;;
31442;SDS011;18065;55.876;9.830;2024-02-26T05:47:39;3.60;;;1.08;;
31442;SDS011;18065;55.876;9.830;2024-02-26T05:50:08;3.35;;;1.20;;
31442;SDS011;18065;55.876;9.830;2024-02-26T05:52:37;1.58;;;1.10;;
31442;SDS011;18065;55.876;9.830;2024-02-26T05:55:07;2.25;;;1.08;;
31442;SDS011;18065;55.876;9.830;2024-02-26T05:57:39;4.30;;;1.30;;
31442;SDS011;18065;55.876;9.830;2024-02-26T06:00:08;9.27;;;1.30;;
31442;SDS011;18065;55.876;9.830;2024-02-26T06:02:38;4.97;;;1.42;;
31442;SDS011;18065;55.876;9.830;2024-02-26T06:05:07;4.82;;;1.35;;
31442;SDS011;18065;55.876;9.830;2024-02-26T06:07:36;4.07;;;1.70;;
31442;SDS011;18065;55.876;9.830;2024-02-26T06:10:05;3.20;;;1.40;;
31442;SDS011;18065;55.876;9.830;2024-02-26T06:12:35;4.50;;;1.40;;
31442;SDS011;18065;55.876;9.830;2024-02-26T06:15:07;4.63;;;1.42;;
31442;SDS011;18065;55.876;9.830;2024-02-26T06:17:37;6.90;;;1.33;;
31442;SDS011;18065;55.876;9.830;2024-02-26T06:20:06;5.05;;;1.60;;
31442;SDS011;18065;55.876;9.830;2024-02-26T06:22:38;2.30;;;1.40;;
31442;SDS011;18065;55.876;9.830;2024-02-26T06:25:08;5.55;;;1.60;;
31442;SDS011;18065;55.876;9.830;2024-02-26T06:27:37;5.93;;;1.50;;
31442;SDS011;18065;55.876;9.830;2024-02-26T06:30:09;4.10;;;1.50;;
31442;SDS011;18065;55.876;9.830;2024-02-26T06:32:38;3.03;;;1.60;;
31442;SDS011;18065;55.876;9.830;2024-02-26T06:35:07;9.23;;;1.38;;
31442;SDS011;18065;55.876;9.830;2024-02-26T06:37:37;6.20;;;1.50;;
31442;SDS011;18065;55.876;9.830;2024-02-26T06:40:06;5.88;;;1.60;;
31442;SDS011;18065;55.876;9.830;2024-02-26T06:42:35;5.82;;;1.75;;
31442;SDS011;18065;55.876;9.830;2024-02-26T06:45:09;3.78;;;1.50;;
31442;SDS011;18065;55.876;9.830;2024-02-26T06:47:38;4.68;;;1.52;;
31442;SDS011;18065;55.876;9.830;2024-02-26T06:50:08;5.03;;;1.70;;
31442;SDS011;18065;55.876;9.830;2024-02-26T06:52:39;3.00;;;1.40;;
31442;SDS011;18065;55.876;9.830;2024-02-26T06:55:08;1.98;;;1.40;;
31442;SDS011;18065;55.876;9.830;2024-02-26T06:57:37;2.35;;;1.23;;
31442;SDS011;18065;55.876;9.830;2024-02-26T07:00:09;2.28;;;1.38;;
31442;SDS011;18065;55.876;9.830;2024-02-26T07:02:41;3.42;;;1.40;;
31442;SDS011;18065;55.876;9.830;2024-02-26T07:05:10;1.40;;;1.10;;
31442;SDS011;18065;55.876;9.830;2024-02-26T07:07:39;9.75;;;1.77;;
31442;SDS011;18065;55.876;9.830;2024-02-26T07:10:08;3.08;;;1.30;;
31442;SDS011;18065;55.876;9.830;2024-02-26T07:12:38;3.72;;;1.20;;
31442;SDS011;18065;55.876;9.830;2024-02-26T07:15:09;4.72;;;1.38;;
31442;SDS011;18065;55.876;9.830;2024-02-26T07:17:38;4.38;;;1.10;;
31442;SDS011;18065;55.876;9.830;2024-02-26T07:20:12;4.55;;;1.70;;
31442;SDS011;18065;55.876;9.830;2024-02-26T07:22:43;2.97;;;1.48;;
31442;SDS011;18065;55.876;9.830;2024-02-26T07:25:12;1.33;;;0.90;;
31442;SDS011;18065;55.876;9.830;2024-02-26T07:27:41;3.63;;;1.05;;
31442;SDS011;18065;55.876;9.830;2024-02-26T07:30:13;4.07;;;1.50;;
31442;SDS011;18065;55.876;9.830;2024-02-26T07:32:42;5.40;;;1.20;;
31442;SDS011;18065;55.876;9.830;2024-02-26T07:35:11;1.85;;;1.30;;
31442;SDS011;18065;55.876;9.830;2024-02-26T07:37:40;3.33;;;1.30;;
31442;SDS011;18065;55.876;9.830;2024-02-26T07:40:09;3.85;;;1.45;;
31442;SDS011;18065;55.876;9.830;2024-02-26T07:42:39;3.83;;;1.20;;
31442;SDS011;18065;55.876;9.830;2024-02-26T07:45:08;2.58;;;1.10;;
31442;SDS011;18065;55.876;9.830;2024-02-26T07:47:40;2.33;;;1.10;;
31442;SDS011;18065;55.876;9.830;2024-02-26T07:50:10;2.97;;;1.33;;
31442;SDS011;18065;55.876;9.830;2024-02-26T07:52:38;2.50;;;1.30;;
31442;SDS011;18065;55.876;9.830;2024-02-26T07:55:08;1.88;;;1.42;;
31442;SDS011;18065;55.876;9.830;2024-02-26T07:57:36;3.45;;;1.40;;
31442;SDS011;18065;55.876;9.830;2024-02-26T08:00:06;4.65;;;1.20;;
31442;SDS011;18065;55.876;9.830;2024-02-26T08:02:35;2.85;;;1.15;;
31442;SDS011;18065;55.876;9.830;2024-02-26T08:05:07;1.98;;;1.08;;
31442;SDS011;18065;55.876;9.830;2024-02-26T08:07:36;3.60;;;1.30;;
31442;SDS011;18065;55.876;9.830;2024-02-26T08:10:06;1.95;;;1.20;;
31442;SDS011;18065;55.876;9.830;2024-02-26T08:12:36;2.88;;;1.13;;
31442;SDS011;18065;55.876;9.830;2024-02-26T08:15:06;3.70;;;1.27;;
31442;SDS011;18065;55.876;9.830;2024-02-26T08:17:36;5.32;;;1.40;;
31442;SDS011;18065;55.876;9.830;2024-02-26T08:20:08;1.60;;;0.82;;
31442;SDS011;18065;55.876;9.830;2024-02-26T08:22:38;4.10;;;1.00;;
31442;SDS011;18065;55.876;9.830;2024-02-26T08:25:07;1.45;;;1.20;;
31442;SDS011;18065;55.876;9.830;2024-02-26T08:27:36;2.25;;;1.23;;
31442;SDS011;18065;55.876;9.830;2024-02-26T08:30:09;3.65;;;1.27;;
31442;SDS011;18065;55.876;9.830;2024-02-26T08:32:41;17.08;;;1.90;;
31442;SDS011;18065;55.876;9.830;2024-02-26T08:35:13;27.75;;;2.50;;
31442;SDS011;18065;55.876;9.830;2024-02-26T08:37:43;15.55;;;2.30;;
31442;SDS011;18065;55.876;9.830;2024-02-26T08:40:13;17.13;;;1.90;;
31442;SDS011;18065;55.876;9.830;2024-02-26T08:42:42;19.85;;;2.10;;
31442;SDS011;18065;55.876;9.830;2024-02-26T08:45:11;14.73;;;1.75;;
31442;SDS011;18065;55.876;9.830;2024-02-26T08:47:40;7.45;;;1.98;;
31442;SDS011;18065;55.876;9.830;2024-02-26T08:50:09;14.18;;;2.33;;
31442;SDS011;18065;55.876;9.830;2024-02-26T08:52:40;11.60;;;2.22;;
31442;SDS011;18065;55.876;9.830;2024-02-26T08:57:40;8.20;;;1.60;;
31442;SDS011;18065;55.876;9.830;2024-02-26T09:00:09;10.68;;;1.63;;
31442;SDS011;18065;55.876;9.830;2024-02-26T09:02:40;5.82;;;1.60;;
31442;SDS011;18065;55.876;9.830;2024-02-26T09:05:10;8.00;;;1.50;;
31442;SDS011;18065;55.876;9.830;2024-02-26T09:07:42;8.48;;;1.65;;
31442;SDS011;18065;55.876;9.830;2024-02-26T09:10:11;6.22;;;1.50;;
31442;SDS011;18065;55.876;9.830;2024-02-26T09:12:40;2.85;;;0.90;;
31442;SDS011;18065;55.876;9.830;2024-02-26T09:15:09;4.15;;;1.25;;
31442;SDS011;18065;55.876;9.830;2024-02-26T09:17:38;4.90;;;1.42;;
31442;SDS011;18065;55.876;9.830;2024-02-26T09:20:07;4.35;;;1.45;;
31442;SDS011;18065;55.876;9.830;2024-02-26T09:22:39;7.82;;;1.73;;
31442;SDS011;18065;55.876;9.830;2024-02-26T09:25:10;4.13;;;1.42;;
31442;SDS011;18065;55.876;9.830;2024-02-26T09:27:41;6.45;;;1.50;;
31442;SDS011;18065;55.876;9.830;2024-02-26T09:30:11;5.03;;;1.50;;
31442;SDS011;18065;55.876;9.830;2024-02-26T09:32:41;6.68;;;1.50;;
31442;SDS011;18065;55.876;9.830;2024-02-26T09:35:14;3.38;;;1.00;;
31442;SDS011;18065;55.876;9.830;2024-02-26T09:37:45;3.47;;;1.23;;
31442;SDS011;18065;55.876;9.830;2024-02-26T09:40:15;2.40;;;1.20;;
31442;SDS011;18065;55.876;9.830;2024-02-26T09:42:44;3.60;;;1.20;;
31442;SDS011;18065;55.876;9.830;2024-02-26T09:45:17;4.18;;;1.20;;
31442;SDS011;18065;55.876;9.830;2024-02-26T09:50:16;5.40;;;1.10;;
31442;SDS011;18065;55.876;9.830;2024-02-26T09:52:50;2.83;;;0.80;;
31442;SDS011;18065;55.876;9.830;2024-02-26T09:55:19;3.80;;;1.60;;
31442;SDS011;18065;55.876;9.830;2024-02-26T09:57:48;2.45;;;1.02;;
31442;SDS011;18065;55.876;9.830;2024-02-26T10:00:20;2.50;;;1.40;;
31442;SDS011;18065;55.876;9.830;2024-02-26T10:02:50;2.58;;;1.15;;
31442;SDS011;18065;55.876;9.830;2024-02-26T10:05:22;2.40;;;1.08;;
31442;SDS011;18065;55.876;9.830;2024-02-26T10:07:55;1.90;;;1.00;;
31442;SDS011;18065;55.876;9.830;2024-02-26T10:10:26;3.63;;;1.30;;
31442;SDS011;18065;55.876;9.830;2024-02-26T10:12:57;3.53;;;1.48;;
31442;SDS011;18065;55.876;9.830;2024-02-26T10:15:27;1.65;;;1.08;;
31442;SDS011;18065;55.876;9.830;2024-02-26T10:17:56;2.33;;;1.27;;
31442;SDS011;18065;55.876;9.830;2024-02-26T10:20:25;7.22;;;1.10;;
31442;SDS011;18065;55.876;9.830;2024-02-26T10:22:56;2.53;;;1.13;;
31442;SDS011;18065;55.876;9.830;2024-02-26T10:25:25;2.65;;;1.00;;
31442;SDS011;18065;55.876;9.830;2024-02-26T10:27:57;2.90;;;1.10;;
31442;SDS011;18065;55.876;9.830;2024-02-26T10:30:29;2.22;;;1.25;;
31442;SDS011;18065;55.876;9.830;2024-02-26T10:32:58;1.58;;;1.23;;
31442;SDS011;18065;55.876;9.830;2024-02-26T10:35:27;2.70;;;1.20;;
31442;SDS011;18065;55.876;9.830;2024-02-26T10:37:59;3.03;;;1.20;;
31442;SDS011;18065;55.876;9.830;2024-02-26T10:40:29;2.80;;;1.30;;
31442;SDS011;18065;55.876;9.830;2024-02-26T10:42:58;2.67;;;1.10;;
31442;SDS011;18065;55.876;9.830;2024-02-26T10:45:26;3.42;;;1.10;;
31442;SDS011;18065;55.876;9.830;2024-02-26T10:47:55;2.92;;;1.00;;
31442;SDS011;18065;55.876;9.830;2024-02-26T10:50:24;3.95;;;1.45;;
31442;SDS011;18065;55.876;9.830;2024-02-26T10:52:54;2.63;;;1.17;;
31442;SDS011;18065;55.876;9.830;2024-02-26T10:55:27;4.10;;;1.27;;
31442;SDS011;18065;55.876;9.830;2024-02-26T10:57:58;5.22;;;1.40;;
31442;SDS011;18065;55.876;9.830;2024-02-26T11:00:28;2.75;;;1.20;;
31442;SDS011;18065;55.876;9.830;2024-02-26T11:02:57;5.22;;;1.25;;
31442;SDS011;18065;55.876;9.830;2024-02-26T11:05:28;2.50;;;0.98;;
31442;SDS011;18065;55.876;9.830;2024-02-26T11:07:58;3.88;;;1.35;;
31442;SDS011;18065;55.876;9.830;2024-02-26T11:10:31;2.75;;;0.80;;
31442;SDS011;18065;55.876;9.830;2024-02-26T11:13:01;2.97;;;1.10;;
31442;SDS011;18065;55.876;9.830;2024-02-26T11:15:31;1.95;;;0.90;;
31442;SDS011;18065;55.876;9.830;2024-02-26T11:18:01;1.88;;;0.88;;
31442;SDS011;18065;55.876;9.830;2024-02-26T11:20:30;2.40;;;0.73;;
31442;SDS011;18065;55.876;9.830;2024-02-26T11:23:01;1.70;;;1.02;;
31442;SDS011;18065;55.876;9.830;2024-02-26T11:25:33;4.18;;;1.00;;
31442;SDS011;18065;55.876;9.830;2024-02-26T11:28:05;2.85;;;1.00;;
31442;SDS011;18065;55.876;9.830;2024-02-26T11:30:38;2.45;;;0.82;;
31442;SDS011;18065;55.876;9.830;2024-02-26T11:35:40;1.67;;;1.00;;
31442;SDS011;18065;55.876;9.830;2024-02-26T11:38:09;3.35;;;1.13;;
31442;SDS011;18065;55.876;9.830;2024-02-26T11:40:50;5.03;;;0.95;;
31442;SDS011;18065;55.876;9.830;2024-02-26T11:43:23;2.20;;;1.13;;
31442;SDS011;18065;55.876;9.830;2024-02-26T11:45:53;2.08;;;1.05;;
31442;SDS011;18065;55.876;9.830;2024-02-26T11:48:24;1.50;;;0.88;;
31442;SDS011;18065;55.876;9.830;2024-02-26T11:50:52;1.58;;;0.80;;
31442;SDS011;18065;55.876;9.830;2024-02-26T11:53:22;2.55;;;0.80;;
31442;SDS011;18065;55.876;9.830;2024-02-26T11:58:47;2.05;;;0.75;;
31442;SDS011;18065;55.876;9.830;2024-02-26T12:04:11;1.10;;;0.90;;
31442;SDS011;18065;55.876;9.830;2024-02-26T12:06:42;1.75;;;0.85;;
31442;SDS011;18065;55.876;9.830;2024-02-26T12:09:12;0.90;;;0.80;;
31442;SDS011;18065;55.876;9.830;2024-02-26T12:11:44;0.80;;;0.70;;
31442;SDS011;18065;55.876;9.830;2024-02-26T12:14:13;1.05;;;0.80;;
31442;SDS011;18065;55.876;9.830;2024-02-26T12:16:46;3.40;;;0.83;;
31442;SDS011;18065;55.876;9.830;2024-02-26T12:19:18;3.00;;;1.00;;
31442;SDS011;18065;55.876;9.830;2024-02-26T12:21:50;3.05;;;1.00;;
31442;SDS011;18065;55.876;9.830;2024-02-26T12:24:20;4.67;;;0.80;;
31442;SDS011;18065;55.876;9.830;2024-02-26T12:26:51;2.55;;;0.90;;
31442;SDS011;18065;55.876;9.830;2024-02-26T12:29:21;1.05;;;0.65;;
31442;SDS011;18065;55.876;9.830;2024-02-26T12:31:50;1.40;;;0.75;;
31442;SDS011;18065;55.876;9.830;2024-02-26T12:34:19;2.22;;;0.75;;
31442;SDS011;18065;55.876;9.830;2024-02-26T12:36:48;1.10;;;0.85;;
31442;SDS011;18065;55.876;9.830;2024-02-26T12:39:18;1.05;;;0.60;;
31442;SDS011;18065;55.876;9.830;2024-02-26T12:41:47;1.05;;;0.60;;
31442;SDS011;18065;55.876;9.830;2024-02-26T12:44:20;3.45;;;0.75;;
31442;SDS011;18065;55.876;9.830;2024-02-26T12:46:59;2.97;;;0.82;;
31442;SDS011;18065;55.876;9.830;2024-02-26T12:49:28;1.10;;;0.88;;
31442;SDS011;18065;55.876;9.830;2024-02-26T12:51:57;1.90;;;0.70;;
31442;SDS011;18065;55.876;9.830;2024-02-26T12:54:26;1.30;;;0.68;;
31442;SDS011;18065;55.876;9.830;2024-02-26T12:56:56;2.08;;;0.70;;
31442;SDS011;18065;55.876;9.830;2024-02-26T12:59:28;2.38;;;0.60;;
31442;SDS011;18065;55.876;9.830;2024-02-26T13:01:58;0.83;;;0.80;;
31442;SDS011;18065;55.876;9.830;2024-02-26T13:04:28;1.48;;;0.77;;
31442;SDS011;18065;55.876;9.830;2024-02-26T13:06:59;1.65;;;0.80;;
31442;SDS011;18065;55.876;9.830;2024-02-26T13:09:32;1.48;;;0.75;;
31442;SDS011;18065;55.876;9.830;2024-02-26T13:12:03;1.20;;;0.70;;
31442;SDS011;18065;55.876;9.830;2024-02-26T13:14:36;1.50;;;0.70;;
31442;SDS011;18065;55.876;9.830;2024-02-26T13:17:05;1.20;;;0.85;;
31442;SDS011;18065;55.876;9.830;2024-02-26T13:19:34;1.60;;;0.70;;
31442;SDS011;18065;55.876;9.830;2024-02-26T13:22:03;1.50;;;0.80;;
31442;SDS011;18065;55.876;9.830;2024-02-26T13:24:33;2.80;;;0.90;;
31442;SDS011;18065;55.876;9.830;2024-02-26T13:27:02;9.85;;;1.98;;
31442;SDS011;18065;55.876;9.830;2024-02-26T13:29:32;6.85;;;1.67;;
31442;SDS011;18065;55.876;9.830;2024-02-26T13:32:03;12.25;;;1.50;;
31442;SDS011;18065;55.876;9.830;2024-02-26T13:34:34;4.32;;;1.13;;
31442;SDS011;18065;55.876;9.830;2024-02-26T13:37:02;4.72;;;1.25;;
31442;SDS011;18065;55.876;9.830;2024-02-26T13:39:32;4.10;;;1.35;;
31442;SDS011;18065;55.876;9.830;2024-02-26T13:42:00;2.05;;;0.90;;
31442;SDS011;18065;55.876;9.830;2024-02-26T13:44:29;3.38;;;1.02;;
31442;SDS011;18065;55.876;9.830;2024-02-26T13:47:04;5.05;;;1.10;;
31442;SDS011;18065;55.876;9.830;2024-02-26T13:49:33;3.80;;;0.90;;
31442;SDS011;18065;55.876;9.830;2024-02-26T13:52:02;3.85;;;0.80;;
31442;SDS011;18065;55.876;9.830;2024-02-26T13:54:31;2.90;;;1.00;;
31442;SDS011;18065;55.876;9.830;2024-02-26T13:57:00;2.03;;;0.80;;
31442;SDS011;18065;55.876;9.830;2024-02-26T13:59:29;4.43;;;0.93;;
31442;SDS011;18065;55.876;9.830;2024-02-26T14:01:58;3.53;;;1.30;;
31442;SDS011;18065;55.876;9.830;2024-02-26T14:04:29;3.47;;;0.85;;
31442;SDS011;18065;55.876;9.830;2024-02-26T14:06:58;2.72;;;1.00;;
31442;SDS011;18065;55.876;9.830;2024-02-26T14:09:27;2.95;;;0.90;;
31442;SDS011;18065;55.876;9.830;2024-02-26T14:11:57;1.20;;;0.80;;
31442;SDS011;18065;55.876;9.830;2024-02-26T14:14:26;4.88;;;0.90;;
31442;SDS011;18065;55.876;9.830;2024-02-26T14:16:58;1.98;;;0.80;;
31442;SDS011;18065;55.876;9.830;2024-02-26T14:19:31;2.40;;;0.95;;
31442;SDS011;18065;55.876;9.830;2024-02-26T14:22:00;1.75;;;0.80;;
31442;SDS011;18065;55.876;9.830;2024-02-26T14:24:29;1.40;;;0.63;;
31442;SDS011;18065;55.876;9.830;2024-02-26T14:26:58;1.60;;;0.85;;
31442;SDS011;18065;55.876;9.830;2024-02-26T14:29:27;2.33;;;0.60;;
31442;SDS011;18065;55.876;9.830;2024-02-26T14:31:56;4.55;;;0.70;;
31442;SDS011;18065;55.876;9.830;2024-02-26T14:34:26;4.97;;;0.88;;
31442;SDS011;18065;55.876;9.830;2024-02-26T14:36:58;1.95;;;0.60;;
31442;SDS011;18065;55.876;9.830;2024-02-26T14:39:26;1.73;;;0.70;;
31442;SDS011;18065;55.876;9.830;2024-02-26T14:41:56;2.17;;;0.82;;
31442;SDS011;18065;55.876;9.830;2024-02-26T14:44:25;1.00;;;0.68;;
31442;SDS011;18065;55.876;9.830;2024-02-26T14:46:54;2.30;;;0.82;;
31442;SDS011;18065;55.876;9.830;2024-02-26T14:49:23;1.52;;;0.80;;
31442;SDS011;18065;55.876;9.830;2024-02-26T14:51:52;2.63;;;0.70;;
31442;SDS011;18065;55.876;9.830;2024-02-26T14:54:24;1.27;;;0.70;;
31442;SDS011;18065;55.876;9.830;2024-02-26T14:56:53;2.58;;;0.68;;
31442;SDS011;18065;55.876;9.830;2024-02-26T14:59:22;1.20;;;0.60;;
31442;SDS011;18065;55.876;9.830;2024-02-26T15:01:50;7.00;;;0.98;;
31442;SDS011;18065;55.876;9.830;2024-02-26T15:04:19;3.85;;;1.20;;
31442;SDS011;18065;55.876;9.830;2024-02-26T15:06:48;4.95;;;1.30;;
31442;SDS011;18065;55.876;9.830;2024-02-26T15:09:17;15.90;;;1.75;;
31442;SDS011;18065;55.876;9.830;2024-02-26T15:11:49;5.78;;;1.17;;
31442;SDS011;18065;55.876;9.830;2024-02-26T15:14:17;9.15;;;1.10;;
31442;SDS011;18065;55.876;9.830;2024-02-26T15:16:46;5.38;;;1.05;;